Butte, Montana
Current Conditions -  °F | °C
As of 7:53 PM on Saturday 20 Dec 2014 (Local Time) from KBTM Reporting Station
Few Clouds Few Clouds  
Wind Chill: 28°   Ceiling: Unl
Heat Index: 28°   Visibility: 10mi
Dew Point: 23°   Wind: 0mph
Humidity: 81%   Direction: NA
Pressure: 29.73"   Gusts: NA
Location:  45.95°N, 112.5°W
Report Text: KBTM 210253Z AUTO 00000KT 10SM FEW120 M02/M05 A2973 RMK AO2 SLP109 T10221050 58020
Loading
Personal Weather Stations






























Interactive Weather Map New forecast layout! Learn more

10-Day Weather Forecast

Advertisements
Track Severe Weather on mobile